This is the latest recevied weather packets stored in our database for station/object K5KVN. If no packets are shown the sender has not sent any weather packets the latest 10 day(s).
| Time | Temp. | Humidity | Pressure | Rain* | Wind** | Luminosity | Snow |
|---|---|---|---|---|---|---|---|
| 1787579066 | 22.22° C | 91% | 1016.9 hPa | 0 mm | - | - | - |
| 1787578465 | 22.22° C | 92% | 1017 hPa | 0 mm | - | - | - |
| 1787577925 | 22.22° C | 93% | 1016.8 hPa | 0 mm | - | - | - |
| 1787577265 | 21.67° C | 93% | 1016.8 hPa | 0 mm | - | - | - |
| 1787576665 | 21.67° C | 93% | 1017 hPa | 0 mm | - | - | - |
| 1787576063 | 21.67° C | 93% | 1016.9 hPa | 0 mm | - | - | - |
| 1787575459 | 21.67° C | 94% | 1016.5 hPa | 0 mm | - | - | - |
| 1787574860 | 21.67° C | 94% | 1016.6 hPa | 0 mm | - | - | - |
| 1787574261 | 21.67° C | 94% | 1016.5 hPa | 0 mm | - | - | - |
| 1787573721 | 21.67° C | 94% | 1016.3 hPa | 0.25 mm | - | - | - |
| 1787573059 | 21.67° C | 93% | 1016.4 hPa | 0.76 mm | - | - | - |
| 1787572517 | 21.67° C | 94% | 1015.9 hPa | 0.76 mm | - | - | - |
| 1787571859 | 21.67° C | 94% | 1015.6 hPa | 2.79 mm | - | - | - |
| 1787571318 | 21.67° C | 94% | 1015.7 hPa | 5.84 mm | - | - | - |
| 1787570719 | 21.11° C | 93% | 1015.9 hPa | 5.84 mm | - | - | - |
| 1787570058 | 21.11° C | 92% | 1016.2 hPa | 5.59 mm | - | - | - |
| 1787569458 | 21.67° C | 91% | 1016.5 hPa | 5.08 mm | - | - | - |
| 1787568859 | 21.67° C | 90% | 1016.4 hPa | 5.08 mm | - | - | - |
| 1787568259 | 22.78° C | 86% | 1016.3 hPa | 3.05 mm | - | - | - |
| 1787567657 | 22.78° C | 83% | 1016.7 hPa | 0 mm | - | - | - |
| 1787567056 | 22.78° C | 83% | 1016.1 hPa | 0 mm | - | - | - |
| 1787566455 | 23.33° C | 82% | 1016.3 hPa | 0 mm | - | - | - |
| 1787565854 | 23.89° C | 79% | 1016.2 hPa | 0 mm | - | - | - |
| 1787565253 | 24.44° C | 75% | 1016.1 hPa | 0 mm | - | - | - |
| 1787564656 | 24.44° C | 73% | 1016.2 hPa | 0 mm | - | - | - |
* Rain latest hour (hover to see other rain measurements)
** Current wind speed in m/s (hover to see current wind gust speed)